createdAt,value
2023-03-12T00:00:06.231Z,10.12
2023-03-12T00:01:37.474Z,10.82
2023-03-12T00:03:08.857Z,11.80
2023-03-12T00:04:40.209Z,11.62
2023-03-12T00:06:11.635Z,8.50
2023-03-12T00:07:42.961Z,8.28
2023-03-12T00:09:14.270Z,7.50
2023-03-12T00:10:45.842Z,8.70
2023-03-12T00:12:17.551Z,10.27
2023-03-12T00:13:49.150Z,8.38
2023-03-12T00:15:20.815Z,9.50
2023-03-12T00:16:52.005Z,10.99
2023-03-12T00:18:23.533Z,9.97
2023-03-12T00:19:54.714Z,8.33
2023-03-12T00:21:26.137Z,9.75
2023-03-12T00:22:57.481Z,9.96
2023-03-12T00:24:28.892Z,7.90
2023-03-12T00:26:00.386Z,9.29
2023-03-12T00:27:31.591Z,9.75
2023-03-12T00:29:02.827Z,9.43
2023-03-12T00:30:34.151Z,8.63
2023-03-12T00:32:05.708Z,9.79
2023-03-12T00:33:37.112Z,10.59
2023-03-12T00:35:08.467Z,9.41
2023-03-12T00:36:39.812Z,9.02
2023-03-12T00:38:11.238Z,9.67
2023-03-12T00:39:42.648Z,8.88
2023-03-12T00:41:13.821Z,8.63
2023-03-12T00:42:45.164Z,10.94
2023-03-12T00:44:16.586Z,7.58
2023-03-12T00:45:47.922Z,7.84
2023-03-12T00:47:24.091Z,7.45
2023-03-12T00:48:55.537Z,8.95
2023-03-12T00:50:27.068Z,11.01
2023-03-12T00:51:58.641Z,7.59
2023-03-12T00:53:30.400Z,7.42
2023-03-12T00:55:01.780Z,7.70
2023-03-12T00:56:33.145Z,8.77
2023-03-12T00:58:04.751Z,7.78
2023-03-12T00:59:36.002Z,9.47
2023-03-12T01:01:07.408Z,6.64
2023-03-12T01:02:38.709Z,9.09
2023-03-12T01:04:10.064Z,8.40
2023-03-12T01:05:46.476Z,8.47
2023-03-12T01:07:17.664Z,8.59
2023-03-12T01:08:48.886Z,8.06
2023-03-12T01:10:20.097Z,7.82
2023-03-12T01:11:51.447Z,6.20
2023-03-12T01:13:22.726Z,6.57
2023-03-12T01:14:54.333Z,5.87
2023-03-12T01:16:25.702Z,7.49
2023-03-12T01:17:57.143Z,7.97
2023-03-12T01:19:28.569Z,6.63
2023-03-12T01:20:59.920Z,8.65
2023-03-12T01:22:31.149Z,8.60
2023-03-12T01:24:02.745Z,7.53
2023-03-12T01:25:34.092Z,7.77
2023-03-12T01:27:11.414Z,7.98
2023-03-12T01:28:42.857Z,6.52
2023-03-12T01:30:14.287Z,6.21
2023-03-12T01:31:46.744Z,5.80
2023-03-12T01:33:18.132Z,8.59
2023-03-12T01:34:49.371Z,9.39
2023-03-12T01:36:20.937Z,7.43
2023-03-12T01:37:57.875Z,7.72
2023-03-12T01:39:30.804Z,7.24
2023-03-12T01:41:02.193Z,7.96
2023-03-12T01:42:53.374Z,6.38
2023-03-12T01:44:29.954Z,7.88
2023-03-12T01:46:01.520Z,6.77
2023-03-12T01:47:32.775Z,7.70
2023-03-12T01:49:04.245Z,6.19
2023-03-12T01:50:35.640Z,9.13
2023-03-12T01:52:06.984Z,7.77
2023-03-12T01:53:38.504Z,7.25
2023-03-12T01:55:30.425Z,6.87
2023-03-12T01:57:12.078Z,8.49
2023-03-12T01:58:43.506Z,7.41
2023-03-12T02:00:14.992Z,7.25
2023-03-12T02:01:46.531Z,7.63
2023-03-12T02:03:17.744Z,8.16
2023-03-12T02:04:49.232Z,8.50
2023-03-12T02:06:20.564Z,7.06
2023-03-12T02:07:52.008Z,9.15
2023-03-12T02:09:23.708Z,7.39
2023-03-12T02:10:55.018Z,7.26
2023-03-12T02:12:26.267Z,8.44
2023-03-12T02:13:57.478Z,6.34
2023-03-12T02:15:28.693Z,7.59
2023-03-12T02:17:00.120Z,7.10
2023-03-12T02:18:31.433Z,7.52
2023-03-12T02:20:02.747Z,8.64
2023-03-12T02:21:34.225Z,7.80
2023-03-12T02:23:06.332Z,7.40
2023-03-12T02:24:37.781Z,5.81
2023-03-12T02:26:09.686Z,6.57
2023-03-12T02:27:41.055Z,7.71
2023-03-12T02:29:12.274Z,6.78
2023-03-12T02:30:43.543Z,8.08
2023-03-12T02:32:14.802Z,6.34
2023-03-12T02:33:46.024Z,6.91
2023-03-12T02:35:17.315Z,7.00
2023-03-12T02:36:48.641Z,7.69
2023-03-12T02:38:19.916Z,7.53
2023-03-12T02:39:51.601Z,7.92
2023-03-12T02:41:28.252Z,6.23
2023-03-12T02:43:00.612Z,8.91
2023-03-12T02:44:31.907Z,7.74
2023-03-12T02:46:03.168Z,7.55
2023-03-12T02:47:34.477Z,10.57
2023-03-12T02:49:11.116Z,7.37
2023-03-12T02:50:42.456Z,7.17
2023-03-12T02:52:13.675Z,6.76
2023-03-12T02:53:45.032Z,7.05
2023-03-12T02:55:16.685Z,8.58
2023-03-12T02:56:48.130Z,9.70
2023-03-12T02:58:19.360Z,6.79
2023-03-12T02:59:55.721Z,7.06
2023-03-12T03:01:27.027Z,6.89
2023-03-12T03:02:58.458Z,7.46
2023-03-12T03:04:29.826Z,9.83
2023-03-12T03:06:01.235Z,8.04
2023-03-12T03:07:32.433Z,8.29
2023-03-12T03:09:04.268Z,7.71
2023-03-12T03:10:35.617Z,7.16
2023-03-12T03:12:06.923Z,5.40
2023-03-12T03:13:38.163Z,6.40
2023-03-12T03:15:09.581Z,8.08
2023-03-12T03:16:40.946Z,7.73
2023-03-12T03:18:12.369Z,9.44
2023-03-12T03:19:43.745Z,6.44
2023-03-12T03:21:15.056Z,6.80
2023-03-12T03:22:46.322Z,7.93
2023-03-12T03:24:18.033Z,7.12
2023-03-12T03:25:50.468Z,8.20
2023-03-12T03:27:21.981Z,9.22
2023-03-12T03:28:53.717Z,9.62
2023-03-12T03:30:24.946Z,7.64
2023-03-12T03:31:56.442Z,8.60
2023-03-12T03:33:27.693Z,7.15
2023-03-12T03:34:59.173Z,7.39
2023-03-12T03:36:30.409Z,8.38
2023-03-12T03:38:01.698Z,8.63
2023-03-12T03:39:32.936Z,7.99
2023-03-12T03:41:04.179Z,7.33
2023-03-12T03:42:35.507Z,6.71
2023-03-12T03:44:07.372Z,6.72
2023-03-12T03:45:38.672Z,5.18
2023-03-12T03:47:10.059Z,5.63
2023-03-12T03:48:41.293Z,8.79
2023-03-12T03:50:12.760Z,7.82
2023-03-12T03:51:44.134Z,8.57
2023-03-12T03:53:15.493Z,9.30
2023-03-12T03:54:46.709Z,9.47
2023-03-12T03:56:18.037Z,7.48
2023-03-12T03:57:49.273Z,7.58
2023-03-12T03:59:20.691Z,7.88
2023-03-12T04:00:52.106Z,7.39
2023-03-12T04:02:23.538Z,6.68
2023-03-12T04:03:55.424Z,7.06
2023-03-12T04:05:26.689Z,7.21
2023-03-12T04:06:58.193Z,7.13
2023-03-12T04:08:29.892Z,7.21
2023-03-12T04:10:01.710Z,7.31
2023-03-12T04:11:33.077Z,7.14
2023-03-12T04:13:04.384Z,7.25
2023-03-12T04:14:35.747Z,5.20
2023-03-12T04:16:07.419Z,6.01
2023-03-12T04:17:38.833Z,7.24
2023-03-12T04:19:10.023Z,8.46
2023-03-12T04:20:41.395Z,5.39
2023-03-12T04:22:12.597Z,6.28
2023-03-12T04:23:43.908Z,5.57
2023-03-12T04:25:15.123Z,6.72
2023-03-12T04:26:46.611Z,7.94
2023-03-12T04:28:17.934Z,6.36
2023-03-12T04:29:49.512Z,8.06
2023-03-12T04:31:20.781Z,6.54
2023-03-12T04:32:52.316Z,6.83
2023-03-12T04:34:23.650Z,7.21
2023-03-12T04:35:55.420Z,7.68
2023-03-12T04:37:26.853Z,7.26
2023-03-12T04:38:58.060Z,5.10
2023-03-12T04:40:29.536Z,8.07
2023-03-12T04:42:06.067Z,6.57
2023-03-12T04:43:37.226Z,6.59
2023-03-12T04:45:08.427Z,6.27
2023-03-12T04:46:39.748Z,6.77
2023-03-12T04:48:11.079Z,8.40
2023-03-12T04:49:42.540Z,8.68
2023-03-12T04:51:13.805Z,6.79
2023-03-12T04:52:45.138Z,7.88
2023-03-12T04:54:16.614Z,5.92
2023-03-12T04:55:49.078Z,6.01
2023-03-12T04:57:20.327Z,5.57
2023-03-12T04:58:51.523Z,7.23
2023-03-12T05:00:22.862Z,5.82
2023-03-12T05:01:59.196Z,6.87
2023-03-12T05:03:30.439Z,7.42
2023-03-12T05:05:01.651Z,8.10
2023-03-12T05:06:32.880Z,4.79
2023-03-12T05:08:04.196Z,8.46
2023-03-12T05:09:35.656Z,6.86
2023-03-12T05:11:07.137Z,6.82
2023-03-12T05:12:40.419Z,5.65
2023-03-12T05:14:12.142Z,6.78
2023-03-12T05:15:43.584Z,6.57
2023-03-12T05:17:14.802Z,6.50
2023-03-12T05:18:46.138Z,7.35
2023-03-12T05:20:17.442Z,5.61
2023-03-12T05:21:48.927Z,6.79
2023-03-12T05:23:20.105Z,5.44
2023-03-12T05:24:51.447Z,6.90
2023-03-12T05:26:22.700Z,7.33
2023-03-12T05:27:54.223Z,7.07
2023-03-12T05:29:25.535Z,7.40
2023-03-12T05:30:56.781Z,6.43
2023-03-12T05:32:28.248Z,5.85
2023-03-12T05:34:04.788Z,6.72
2023-03-12T05:35:41.383Z,7.49
2023-03-12T05:37:12.643Z,6.95
2023-03-12T05:38:43.841Z,5.63
2023-03-12T05:40:15.245Z,6.86
2023-03-12T05:41:46.738Z,6.93
2023-03-12T05:43:18.158Z,6.87
2023-03-12T05:44:49.326Z,8.43
2023-03-12T05:46:20.562Z,7.28
2023-03-12T05:47:51.824Z,7.62
2023-03-12T05:49:23.148Z,7.24
2023-03-12T05:50:54.464Z,9.06
2023-03-12T05:52:26.112Z,7.29
2023-03-12T05:53:57.700Z,7.55
2023-03-12T05:55:28.883Z,6.44
2023-03-12T05:57:00.207Z,6.72
2023-03-12T05:58:31.551Z,7.38
2023-03-12T06:00:02.984Z,7.66
2023-03-12T06:01:34.204Z,7.98
2023-03-12T06:03:05.441Z,8.06
2023-03-12T06:04:36.659Z,7.85
2023-03-12T06:06:07.944Z,7.54
2023-03-12T06:07:39.193Z,7.55
2023-03-12T06:09:10.402Z,6.06
2023-03-12T06:10:41.683Z,8.54
2023-03-12T06:12:12.967Z,7.39
2023-03-12T06:13:46.278Z,7.43
2023-03-12T06:15:17.932Z,6.37
2023-03-12T06:16:54.321Z,6.44
2023-03-12T06:18:25.789Z,6.34
2023-03-12T06:19:57.036Z,6.57
2023-03-12T06:21:28.332Z,6.55
2023-03-12T06:22:59.958Z,7.28
2023-03-12T06:24:31.391Z,8.16
2023-03-12T06:26:02.701Z,7.80
2023-03-12T06:27:33.932Z,8.65
2023-03-12T06:29:05.333Z,8.01
2023-03-12T06:30:36.779Z,7.32
2023-03-12T06:32:08.023Z,7.01
2023-03-12T06:33:39.286Z,7.76
2023-03-12T06:35:10.662Z,8.85
2023-03-12T06:36:42.114Z,8.26
2023-03-12T06:38:13.453Z,6.97
2023-03-12T06:39:44.949Z,7.11
2023-03-12T06:41:21.283Z,7.19
2023-03-12T06:42:52.786Z,8.72
2023-03-12T06:44:24.001Z,9.01
2023-03-12T06:45:55.687Z,8.56
2023-03-12T06:47:26.944Z,11.24
2023-03-12T06:48:58.190Z,8.68
2023-03-12T06:50:29.477Z,9.52
2023-03-12T06:52:00.913Z,8.65
2023-03-12T06:53:32.189Z,8.86
2023-03-12T06:55:04.713Z,9.15
2023-03-12T06:56:35.909Z,9.80
2023-03-12T06:58:07.215Z,8.45
2023-03-12T06:59:38.588Z,8.44
2023-03-12T07:01:10.121Z,5.68
2023-03-12T07:02:41.578Z,6.38
2023-03-12T07:04:13.058Z,7.45
2023-03-12T07:05:50.233Z,7.48
2023-03-12T07:07:21.835Z,7.91
2023-03-12T07:08:53.208Z,7.25
2023-03-12T07:10:25.068Z,8.32
2023-03-12T07:11:56.288Z,6.97
2023-03-12T07:13:27.691Z,6.84
2023-03-12T07:14:58.937Z,6.99
2023-03-12T07:16:31.529Z,7.57
2023-03-12T07:18:02.801Z,6.28
2023-03-12T07:19:34.047Z,8.06
2023-03-12T07:21:05.634Z,7.84
2023-03-12T07:22:37.067Z,8.24
2023-03-12T07:24:08.363Z,6.33
2023-03-12T07:25:39.640Z,8.92
2023-03-12T07:27:10.881Z,7.88
2023-03-12T07:28:42.222Z,8.13
2023-03-12T07:30:13.551Z,9.11
2023-03-12T07:31:45.221Z,7.93
2023-03-12T07:33:16.776Z,8.20
2023-03-12T07:34:48.102Z,6.94
2023-03-12T07:36:19.393Z,8.57
2023-03-12T07:37:50.814Z,8.83
2023-03-12T07:39:22.043Z,7.86
2023-03-12T07:40:53.818Z,6.90
2023-03-12T07:42:25.265Z,6.89
2023-03-12T07:43:56.489Z,6.67
2023-03-12T07:45:28.259Z,7.36
2023-03-12T07:47:07.067Z,8.05
2023-03-12T07:48:53.219Z,7.24
2023-03-12T07:50:24.511Z,8.44
2023-03-12T07:51:56.150Z,9.50
2023-03-12T07:53:27.696Z,7.64
2023-03-12T07:54:59.128Z,7.80
2023-03-12T07:56:30.673Z,10.00
2023-03-12T07:58:01.944Z,9.80
2023-03-12T07:59:33.299Z,10.16
2023-03-12T08:01:04.702Z,9.52
2023-03-12T08:02:37.703Z,8.30
2023-03-12T08:04:09.460Z,6.69
2023-03-12T08:05:41.310Z,7.22
2023-03-12T08:07:12.819Z,8.63
2023-03-12T08:08:44.318Z,8.21
2023-03-12T08:10:15.889Z,6.05
2023-03-12T08:11:47.224Z,8.34
2023-03-12T08:13:18.453Z,8.26
2023-03-12T08:14:50.103Z,10.31
2023-03-12T08:16:23.576Z,7.69
2023-03-12T08:17:54.885Z,8.28
2023-03-12T08:19:26.124Z,6.76
2023-03-12T08:20:57.438Z,6.86
2023-03-12T08:22:28.781Z,7.77
2023-03-12T08:24:00.025Z,7.37
2023-03-12T08:25:31.497Z,7.82
2023-03-12T08:27:02.646Z,9.12
2023-03-12T08:28:33.990Z,10.63
2023-03-12T08:30:05.521Z,10.07
2023-03-12T08:31:37.155Z,8.41
2023-03-12T08:33:08.446Z,7.69
2023-03-12T08:35:05.590Z,9.44
2023-03-12T08:36:37.103Z,7.65
2023-03-12T08:38:08.287Z,8.82
2023-03-12T08:39:39.566Z,9.98
2023-03-12T08:41:11.075Z,8.03
2023-03-12T08:42:42.565Z,9.03
2023-03-12T08:44:13.982Z,7.45
2023-03-12T08:45:45.229Z,10.07
2023-03-12T08:47:16.553Z,7.56
2023-03-12T08:48:47.912Z,8.61
2023-03-12T08:50:19.160Z,7.17
2023-03-12T08:51:50.377Z,8.35
2023-03-12T08:53:21.758Z,8.45
2023-03-12T08:54:53.012Z,8.56
2023-03-12T08:56:24.211Z,6.53
2023-03-12T08:57:55.778Z,6.85
2023-03-12T08:59:27.239Z,5.93
2023-03-12T09:00:58.761Z,6.70
2023-03-12T09:02:31.174Z,5.44
2023-03-12T09:04:02.783Z,7.35
2023-03-12T09:05:34.575Z,5.40
2023-03-12T09:07:05.801Z,6.19
2023-03-12T09:08:52.401Z,8.42
2023-03-12T09:10:23.718Z,5.72
2023-03-12T09:11:54.991Z,7.33
2023-03-12T09:13:36.615Z,7.57
2023-03-12T09:15:22.211Z,6.81
2023-03-12T09:16:53.722Z,6.78
2023-03-12T09:18:24.973Z,7.26
2023-03-12T09:19:56.487Z,6.22
2023-03-12T09:21:27.899Z,8.19
2023-03-12T09:22:59.292Z,7.73
2023-03-12T09:24:30.613Z,7.36
2023-03-12T09:26:02.178Z,8.43
2023-03-12T09:27:33.667Z,7.02
2023-03-12T09:29:05.080Z,6.96
2023-03-12T09:30:36.630Z,6.58
2023-03-12T09:32:08.202Z,6.25
2023-03-12T09:33:39.606Z,8.47
2023-03-12T09:35:12.035Z,6.08
2023-03-12T09:36:43.524Z,6.46
2023-03-12T09:38:14.959Z,6.19
2023-03-12T09:39:46.237Z,6.47
2023-03-12T09:41:17.631Z,4.95
2023-03-12T09:42:48.973Z,5.24
2023-03-12T09:44:20.315Z,4.87
2023-03-12T09:45:52.213Z,6.20
2023-03-12T09:47:23.591Z,5.37
2023-03-12T09:48:54.965Z,6.46
2023-03-12T09:50:26.769Z,6.39
2023-03-12T09:51:59.500Z,6.80
2023-03-12T09:53:30.932Z,6.57
2023-03-12T09:55:02.322Z,6.03
2023-03-12T09:56:33.677Z,7.14
2023-03-12T09:58:04.901Z,4.78
2023-03-12T09:59:36.364Z,5.43
2023-03-12T10:01:08.074Z,4.58
2023-03-12T10:02:39.330Z,6.13
2023-03-12T10:04:12.168Z,5.35
2023-03-12T10:05:43.864Z,5.56
2023-03-12T10:07:15.205Z,5.09
2023-03-12T10:08:46.837Z,5.05
2023-03-12T10:10:18.129Z,4.04
2023-03-12T10:11:54.639Z,5.16
2023-03-12T10:13:32.230Z,5.22
2023-03-12T10:15:03.591Z,4.80
2023-03-12T10:16:35.060Z,5.29
2023-03-12T10:18:06.594Z,3.82
2023-03-12T10:19:38.302Z,3.21
2023-03-12T10:21:10.015Z,4.16
2023-03-12T10:22:41.420Z,4.02
2023-03-12T10:24:12.675Z,3.89
2023-03-12T10:25:44.168Z,3.93
2023-03-12T10:27:40.634Z,4.20
2023-03-12T10:29:22.263Z,3.83
2023-03-12T10:31:03.812Z,3.63
2023-03-12T10:32:35.131Z,3.65
2023-03-12T10:34:11.477Z,3.61
2023-03-12T10:35:43.963Z,3.71
2023-03-12T10:37:15.181Z,4.93
2023-03-12T10:38:46.670Z,4.15
2023-03-12T10:40:17.922Z,3.55
2023-03-12T10:41:49.323Z,3.24
2023-03-12T10:43:20.543Z,3.20
2023-03-12T10:44:51.919Z,3.37
2023-03-12T10:46:23.180Z,3.22
2023-03-12T10:47:54.633Z,3.18
2023-03-12T10:49:26.198Z,2.58
2023-03-12T10:50:57.906Z,2.44
2023-03-12T10:52:29.371Z,3.61
2023-03-12T10:54:00.731Z,2.93
2023-03-12T10:55:32.092Z,2.90
2023-03-12T10:57:03.295Z,2.66
2023-03-12T10:58:34.770Z,2.76
2023-03-12T11:00:06.099Z,3.40
2023-03-12T11:01:37.678Z,2.33
2023-03-12T11:03:08.903Z,2.60
2023-03-12T11:04:40.200Z,2.58
2023-03-12T11:06:11.678Z,2.29
2023-03-12T11:07:43.124Z,3.03
2023-03-12T11:09:16.927Z,3.19
2023-03-12T11:10:48.806Z,3.67
2023-03-12T11:12:20.776Z,3.74
2023-03-12T11:13:51.983Z,2.92
2023-03-12T11:15:23.518Z,2.96
2023-03-12T11:16:54.960Z,3.25
2023-03-12T11:18:27.347Z,2.60
2023-03-12T11:19:58.761Z,3.02
2023-03-12T11:21:30.107Z,3.91
2023-03-12T11:23:11.389Z,2.85
2023-03-12T11:24:42.591Z,2.59
2023-03-12T11:26:13.831Z,2.64
2023-03-12T11:27:45.511Z,2.69
2023-03-12T11:29:17.093Z,2.92
2023-03-12T11:30:48.842Z,4.36
2023-03-12T11:32:20.255Z,2.53
2023-03-12T11:33:51.773Z,4.13
2023-03-12T11:35:23.053Z,2.94
2023-03-12T11:36:54.348Z,2.92
2023-03-12T11:38:25.673Z,3.94
2023-03-12T11:39:57.222Z,4.35
2023-03-12T11:41:28.505Z,3.18
2023-03-12T11:43:15.177Z,3.00
2023-03-12T11:44:46.755Z,4.02
2023-03-12T11:46:18.199Z,4.48
2023-03-12T11:47:50.108Z,4.21
2023-03-12T11:49:21.466Z,4.09
2023-03-12T11:50:52.760Z,4.44
2023-03-12T11:52:24.243Z,5.30
2023-03-12T11:53:56.703Z,4.59
2023-03-12T11:55:28.107Z,5.12
2023-03-12T11:56:59.489Z,5.04
2023-03-12T11:58:31.113Z,5.06
2023-03-12T12:00:02.823Z,4.88
2023-03-12T12:01:35.232Z,5.63
2023-03-12T12:03:06.452Z,5.68
2023-03-12T12:04:37.928Z,5.10
2023-03-12T12:06:09.175Z,5.36
2023-03-12T12:07:40.470Z,5.06
2023-03-12T12:09:11.810Z,5.55
2023-03-12T12:10:43.122Z,6.44
2023-03-12T12:12:14.814Z,5.20
2023-03-12T12:13:46.276Z,5.24
2023-03-12T12:15:18.064Z,7.06
2023-03-12T12:16:49.499Z,5.46
2023-03-12T12:18:20.913Z,5.41
2023-03-12T12:19:52.299Z,5.92
2023-03-12T12:21:23.783Z,5.94
2023-03-12T12:22:55.191Z,5.09
2023-03-12T12:24:26.760Z,4.65
2023-03-12T12:25:58.076Z,4.28
2023-03-12T12:27:29.682Z,4.84
2023-03-12T12:29:01.219Z,5.18
2023-03-12T12:30:32.791Z,6.43
2023-03-12T12:32:25.221Z,5.40
2023-03-12T12:33:56.609Z,5.14
2023-03-12T12:35:28.193Z,4.93
2023-03-12T12:36:59.701Z,4.79
2023-03-12T12:38:31.022Z,4.34
2023-03-12T12:40:02.344Z,6.12
2023-03-12T12:41:33.875Z,5.94
2023-03-12T12:43:10.643Z,6.51
2023-03-12T12:44:41.936Z,4.77
2023-03-12T12:46:13.314Z,5.95
2023-03-12T12:47:44.602Z,6.74
2023-03-12T12:49:15.876Z,6.49
2023-03-12T12:50:47.488Z,7.30
2023-03-12T12:52:23.968Z,8.15
2023-03-12T12:53:56.358Z,7.99
2023-03-12T12:55:27.614Z,6.73
2023-03-12T12:56:58.897Z,8.86
2023-03-12T12:58:30.471Z,10.14
2023-03-12T13:00:01.876Z,9.35
2023-03-12T13:01:33.212Z,7.82
2023-03-12T13:03:04.566Z,10.30
2023-03-12T13:04:35.881Z,10.49
2023-03-12T13:06:07.454Z,10.37
2023-03-12T13:07:39.103Z,11.80
2023-03-12T13:09:11.496Z,9.59
2023-03-12T13:10:53.081Z,11.79
2023-03-12T13:12:29.700Z,12.34
2023-03-12T13:14:00.976Z,12.56
2023-03-12T13:15:33.313Z,11.65
2023-03-12T13:17:04.584Z,12.59
2023-03-12T13:18:37.337Z,10.73
2023-03-12T13:20:09.950Z,12.14
2023-03-12T13:21:41.398Z,12.36
2023-03-12T13:23:13.037Z,9.33
2023-03-12T13:24:44.265Z,10.13
2023-03-12T13:26:15.666Z,11.99
2023-03-12T13:27:47.109Z,14.69
2023-03-12T13:29:18.621Z,10.31
2023-03-12T13:30:49.942Z,12.14
2023-03-12T13:32:21.315Z,10.84
2023-03-12T13:33:58.842Z,12.61
2023-03-12T13:35:30.096Z,10.65
2023-03-12T13:37:01.605Z,12.03
2023-03-12T13:38:33.105Z,16.08
2023-03-12T13:40:04.679Z,16.91
2023-03-12T13:41:36.059Z,15.44
2023-03-12T13:43:07.404Z,17.23
2023-03-12T13:44:38.669Z,16.81
2023-03-12T13:46:09.970Z,18.94
2023-03-12T13:47:41.388Z,16.60
2023-03-12T13:49:12.798Z,18.32
2023-03-12T13:50:44.150Z,18.00
2023-03-12T13:52:15.481Z,19.35
2023-03-12T13:53:46.741Z,17.90
2023-03-12T13:55:19.400Z,17.04
2023-03-12T13:56:51.129Z,18.87
2023-03-12T13:58:22.438Z,22.48
2023-03-12T13:59:53.748Z,20.43
2023-03-12T14:01:25.093Z,19.28
2023-03-12T14:02:56.371Z,21.60
2023-03-12T14:04:27.731Z,20.41
2023-03-12T14:05:59.011Z,20.85
2023-03-12T14:07:30.356Z,24.52
2023-03-12T14:09:01.688Z,24.40
2023-03-12T14:10:33.028Z,16.16
2023-03-12T14:12:04.386Z,20.73
2023-03-12T14:13:35.850Z,21.21
2023-03-12T14:15:07.127Z,25.53
2023-03-12T14:16:38.440Z,27.33
2023-03-12T14:18:09.988Z,31.87
2023-03-12T14:19:41.324Z,29.20
2023-03-12T14:21:12.703Z,31.07
2023-03-12T14:22:43.996Z,28.52
2023-03-12T14:24:15.421Z,31.36
2023-03-12T14:25:46.724Z,18.68
2023-03-12T14:27:18.207Z,25.11
2023-03-12T14:28:49.945Z,31.32
2023-03-12T14:30:21.319Z,27.74
2023-03-12T14:31:52.720Z,30.12
2023-03-12T14:33:24.066Z,28.89
2023-03-12T14:34:55.695Z,29.70
2023-03-12T14:36:27.116Z,31.55
2023-03-12T14:37:58.745Z,32.94
2023-03-12T14:39:30.054Z,33.30
2023-03-12T14:41:01.518Z,23.69
2023-03-12T14:42:32.816Z,28.91
2023-03-12T14:44:04.332Z,31.34
2023-03-12T14:45:35.851Z,29.99
2023-03-12T14:47:07.363Z,26.28
2023-03-12T14:48:38.727Z,26.25
2023-03-12T14:50:10.051Z,28.70
2023-03-12T14:51:41.642Z,25.36
2023-03-12T14:53:13.102Z,25.13
2023-03-12T14:54:44.485Z,27.04
2023-03-12T14:56:16.098Z,28.80
2023-03-12T14:57:47.418Z,27.83
2023-03-12T14:59:40.174Z,22.27
2023-03-12T15:01:13.191Z,28.02
2023-03-12T15:02:44.570Z,25.92
2023-03-12T15:04:16.098Z,29.85
2023-03-12T15:05:47.399Z,28.72
2023-03-12T15:07:20.207Z,31.45
2023-03-12T15:08:51.447Z,31.64
2023-03-12T15:10:22.906Z,21.94
2023-03-12T15:11:59.256Z,30.48
2023-03-12T15:13:30.583Z,33.73
2023-03-12T15:15:01.967Z,33.29
2023-03-12T15:16:33.364Z,32.96
2023-03-12T15:18:26.997Z,28.83
2023-03-12T15:19:59.329Z,32.34
2023-03-12T15:21:30.672Z,30.82
2023-03-12T15:23:04.328Z,25.76
2023-03-12T15:24:36.023Z,30.55
2023-03-12T15:26:07.310Z,30.20
2023-03-12T15:27:39.031Z,26.46
2023-03-12T15:29:10.880Z,31.35
2023-03-12T15:30:42.438Z,32.18
2023-03-12T15:32:13.860Z,29.66
2023-03-12T15:33:45.841Z,28.44
2023-03-12T15:35:17.784Z,33.31
2023-03-12T15:36:49.352Z,30.80
2023-03-12T15:38:20.682Z,28.16
2023-03-12T15:39:52.270Z,31.29
2023-03-12T15:41:23.645Z,34.70
2023-03-12T15:42:55.181Z,33.40
2023-03-12T15:44:26.609Z,25.33
2023-03-12T15:45:58.028Z,20.07
2023-03-12T15:47:29.429Z,27.66
2023-03-12T15:49:00.998Z,28.07
2023-03-12T15:50:32.448Z,26.20
2023-03-12T15:52:03.859Z,19.47
2023-03-12T15:53:35.336Z,27.69
2023-03-12T15:55:06.845Z,24.21
2023-03-12T15:56:38.214Z,22.93
2023-03-12T15:58:09.864Z,20.47
2023-03-12T15:59:41.208Z,26.46
2023-03-12T16:01:12.951Z,24.41
2023-03-12T16:02:44.365Z,31.16
2023-03-12T16:04:15.800Z,24.84
2023-03-12T16:05:47.384Z,24.13
2023-03-12T16:07:18.708Z,22.02
2023-03-12T16:08:50.303Z,23.59
2023-03-12T16:10:21.627Z,24.36
2023-03-12T16:11:52.952Z,30.82
2023-03-12T16:13:24.363Z,27.95
2023-03-12T16:14:56.073Z,33.60
2023-03-12T16:16:27.679Z,26.94
2023-03-12T16:17:59.474Z,28.13
2023-03-12T16:19:30.878Z,32.18
2023-03-12T16:21:20.773Z,28.67
2023-03-12T16:22:52.092Z,29.87
2023-03-12T16:24:23.447Z,26.61
2023-03-12T16:25:54.869Z,33.86
2023-03-12T16:27:32.570Z,34.75
2023-03-12T16:29:04.286Z,31.63
2023-03-12T16:30:35.889Z,31.26
2023-03-12T16:32:10.095Z,28.40
2023-03-12T16:33:41.525Z,22.26
2023-03-12T16:35:12.887Z,29.05
2023-03-12T16:36:44.305Z,31.22
2023-03-12T16:38:15.621Z,27.77
2023-03-12T16:39:47.067Z,19.93
2023-03-12T16:41:18.587Z,33.19
2023-03-12T16:42:49.919Z,27.85
2023-03-12T16:44:21.737Z,30.86
2023-03-12T16:45:53.399Z,29.46
2023-03-12T16:47:24.877Z,28.36
2023-03-12T16:48:56.249Z,35.00
2023-03-12T16:50:27.546Z,26.65
2023-03-12T16:52:16.761Z,21.36
2023-03-12T16:53:55.807Z,20.71
2023-03-12T16:55:36.931Z,26.63
2023-03-12T16:57:13.285Z,26.07
2023-03-12T16:58:45.122Z,27.17
2023-03-12T17:00:18.874Z,21.74
2023-03-12T17:01:50.491Z,30.31
2023-03-12T17:03:21.748Z,24.96
2023-03-12T17:04:53.176Z,28.37
2023-03-12T17:06:24.734Z,26.22
2023-03-12T17:07:56.490Z,30.87
2023-03-12T17:09:27.930Z,31.92
2023-03-12T17:10:59.766Z,33.05
2023-03-12T17:12:31.358Z,27.34
2023-03-12T17:14:51.628Z,27.07
2023-03-12T17:16:23.317Z,32.10
2023-03-12T17:17:55.587Z,29.89
2023-03-12T17:19:27.090Z,21.81
2023-03-12T17:21:03.540Z,26.25
2023-03-12T17:22:34.852Z,27.24
2023-03-12T17:24:06.365Z,32.44
2023-03-12T17:25:37.719Z,24.14
2023-03-12T17:27:19.049Z,21.47
2023-03-12T17:28:50.514Z,25.53
2023-03-12T17:30:21.872Z,27.76
2023-03-12T17:31:53.307Z,26.17
2023-03-12T17:33:24.932Z,24.13
2023-03-12T17:34:56.549Z,27.81
2023-03-12T17:36:42.932Z,28.82
2023-03-12T17:38:24.356Z,21.51
2023-03-12T17:39:55.794Z,24.32
2023-03-12T17:41:27.550Z,20.37
2023-03-12T17:43:09.232Z,25.48
2023-03-12T17:44:40.540Z,25.50
2023-03-12T17:46:11.941Z,23.43
2023-03-12T17:47:43.294Z,25.68
2023-03-12T17:49:14.606Z,28.39
2023-03-12T17:50:50.968Z,28.56
2023-03-12T17:52:23.690Z,21.83
2023-03-12T17:53:55.010Z,32.79
2023-03-12T17:55:26.469Z,25.12
2023-03-12T17:57:03.663Z,26.62
2023-03-12T17:58:35.088Z,27.94
2023-03-12T18:00:06.552Z,22.28
2023-03-12T18:01:38.028Z,25.67
2023-03-12T18:03:09.366Z,26.88
2023-03-12T18:04:40.832Z,26.42
2023-03-12T18:06:12.414Z,24.78
2023-03-12T18:07:43.741Z,27.25
2023-03-12T18:09:46.120Z,30.93
2023-03-12T18:11:22.546Z,28.78
2023-03-12T18:13:05.664Z,28.00
2023-03-12T18:14:36.937Z,30.59
2023-03-12T18:16:08.343Z,28.20
2023-03-12T18:17:39.677Z,28.05
2023-03-12T18:19:16.264Z,24.17
2023-03-12T18:20:52.522Z,20.34
2023-03-12T18:22:28.866Z,24.26
2023-03-12T18:24:08.257Z,26.03
2023-03-12T18:25:44.680Z,30.02
2023-03-12T18:27:16.005Z,30.93
2023-03-12T18:28:47.420Z,21.35
2023-03-12T18:30:18.954Z,29.01
2023-03-12T18:31:50.316Z,26.94
2023-03-12T18:33:21.716Z,34.85
2023-03-12T18:34:53.087Z,31.54
2023-03-12T18:36:24.413Z,34.25
2023-03-12T18:37:55.885Z,22.69
2023-03-12T18:39:27.259Z,26.43
2023-03-12T18:41:18.601Z,25.69
2023-03-12T18:42:50.357Z,26.12
2023-03-12T18:44:21.686Z,28.03
2023-03-12T18:45:56.529Z,25.69
2023-03-12T18:47:27.844Z,30.66
2023-03-12T18:48:59.434Z,26.55
2023-03-12T18:50:30.872Z,27.47
2023-03-12T18:52:05.113Z,22.27
2023-03-12T18:53:36.515Z,20.62
2023-03-12T18:55:08.166Z,27.16
2023-03-12T18:56:39.522Z,28.57
2023-03-12T18:58:10.998Z,28.33
2023-03-12T18:59:42.562Z,32.23
2023-03-12T19:01:19.055Z,29.26
2023-03-12T19:02:50.640Z,28.30
2023-03-12T19:04:27.368Z,28.46
2023-03-12T19:05:58.709Z,26.26
2023-03-12T19:07:30.043Z,33.46
2023-03-12T19:09:16.423Z,24.66
2023-03-12T19:10:47.875Z,29.97
2023-03-12T19:12:19.431Z,25.13
2023-03-12T19:14:00.772Z,30.86
2023-03-12T19:15:47.046Z,27.87
2023-03-12T19:17:23.459Z,29.58
2023-03-12T19:18:54.943Z,26.42
2023-03-12T19:20:26.473Z,30.65
2023-03-12T19:21:57.977Z,28.61
2023-03-12T19:23:39.330Z,25.87
2023-03-12T19:25:10.627Z,27.19
2023-03-12T19:26:41.968Z,27.58
2023-03-12T19:28:13.578Z,21.63
2023-03-12T19:29:45.087Z,22.65
2023-03-12T19:31:26.773Z,23.80
2023-03-12T19:32:58.417Z,28.16
2023-03-12T19:34:30.478Z,25.46
2023-03-12T19:38:12.340Z,26.87
2023-03-12T19:39:43.702Z,22.46
2023-03-12T19:41:26.463Z,26.92
2023-03-12T19:42:59.275Z,30.42
2023-03-12T19:44:31.041Z,20.37
2023-03-12T19:46:02.647Z,22.22
2023-03-12T19:48:16.909Z,29.80
2023-03-12T19:50:03.592Z,23.58
2023-03-12T19:51:47.336Z,26.90
2023-03-12T19:53:18.977Z,31.73
2023-03-12T19:55:03.268Z,29.60
2023-03-12T19:56:35.565Z,25.34
2023-03-12T19:58:27.051Z,26.63
2023-03-12T19:59:58.579Z,29.18
2023-03-12T20:01:30.289Z,29.63
2023-03-12T20:03:01.843Z,27.10
2023-03-12T20:04:34.221Z,22.77
2023-03-12T20:06:07.079Z,25.57
2023-03-12T20:07:49.549Z,29.89
2023-03-12T20:09:20.957Z,25.01
2023-03-12T20:10:52.787Z,27.66
2023-03-12T20:12:24.322Z,25.11
2023-03-12T20:13:55.817Z,26.83
2023-03-12T20:15:27.852Z,24.62
2023-03-12T20:17:09.452Z,31.20
2023-03-12T20:18:40.847Z,29.94